createdAt,value
2017-06-03T04:56:44.331Z,3.70
2017-06-03T04:59:11.107Z,4.93
2017-06-03T05:01:37.855Z,24.40
2017-06-03T05:06:37.723Z,5.63
2017-06-03T05:09:04.643Z,4.80
2017-06-03T05:11:31.402Z,3.60
2017-06-03T05:13:58.159Z,2.90
2017-06-03T05:16:24.956Z,3.90
2017-06-03T05:18:51.773Z,3.20
2017-06-03T05:21:18.533Z,6.07
2017-06-03T05:23:45.330Z,4.40
2017-06-03T05:26:12.095Z,4.13
2017-06-03T05:28:38.868Z,5.00
2017-06-03T05:31:05.667Z,6.00
2017-06-03T05:33:32.423Z,5.43
2017-06-03T05:35:59.346Z,2.80
2017-06-03T05:38:26.131Z,4.90
2017-06-03T05:40:52.872Z,6.57
2017-06-03T05:43:19.636Z,2.70
2017-06-03T05:45:46.461Z,7.67
2017-06-03T05:48:13.235Z,6.10
2017-06-03T05:50:39.998Z,3.73
2017-06-03T05:53:06.818Z,4.80
2017-06-03T05:55:33.638Z,2.17
2017-06-03T05:58:00.446Z,3.00
2017-06-03T06:00:27.223Z,4.83
2017-06-03T06:02:53.971Z,2.70
2017-06-03T06:05:20.771Z,6.50
2017-06-03T06:07:47.577Z,2.43
2017-06-03T06:10:14.355Z,2.60
2017-06-03T06:12:41.151Z,4.13
2017-06-03T06:15:07.958Z,2.93
2017-06-03T06:17:34.728Z,4.27
2017-06-03T06:20:01.513Z,5.50
2017-06-03T06:22:28.322Z,2.43
2017-06-03T06:24:55.084Z,4.47
2017-06-03T06:27:21.836Z,2.33
2017-06-03T06:29:48.660Z,4.43
2017-06-03T06:32:15.425Z,4.07
2017-06-03T06:34:42.200Z,3.97
2017-06-03T06:37:09.010Z,4.73
2017-06-03T06:39:35.790Z,4.33
2017-06-03T06:42:02.536Z,6.43
2017-06-03T06:44:29.397Z,6.03
2017-06-03T06:46:56.164Z,5.03
2017-06-03T06:49:22.931Z,3.77
2017-06-03T06:51:49.754Z,5.37
2017-06-03T06:54:16.555Z,2.53
2017-06-03T06:56:43.340Z,6.23
2017-06-03T06:59:10.137Z,5.63
2017-06-03T07:01:36.919Z,3.17
2017-06-03T07:04:03.664Z,4.07
2017-06-03T07:06:30.501Z,5.10
2017-06-03T07:08:57.271Z,3.33
2017-06-03T07:11:24.048Z,2.80
2017-06-03T07:13:50.878Z,9.23
2017-06-03T07:16:17.641Z,6.60
2017-06-03T07:18:44.403Z,4.80
2017-06-03T07:21:11.215Z,7.13
2017-06-03T07:23:37.989Z,3.17
2017-06-03T07:26:04.788Z,7.73
2017-06-03T07:28:31.589Z,3.90
2017-06-03T07:30:58.366Z,4.13
2017-06-03T07:33:25.150Z,4.70
2017-06-03T07:35:51.994Z,3.13
2017-06-03T07:38:18.813Z,5.27
2017-06-03T07:40:45.595Z,7.73
2017-06-03T07:43:12.431Z,5.37
2017-06-03T07:45:39.190Z,5.90
2017-06-03T07:48:05.978Z,6.60
2017-06-03T07:50:32.837Z,4.47
2017-06-03T07:52:59.652Z,6.10
2017-06-03T07:55:26.418Z,4.53
2017-06-03T07:57:53.239Z,4.33
2017-06-03T08:00:20.003Z,5.37
2017-06-03T08:02:46.787Z,4.43
2017-06-03T08:05:13.586Z,6.50
2017-06-03T08:07:40.393Z,9.43
2017-06-03T08:10:07.156Z,5.97
2017-06-03T08:12:33.972Z,5.17
2017-06-03T08:15:00.760Z,9.73
2017-06-03T08:17:27.590Z,6.10
2017-06-03T08:19:54.420Z,7.10
2017-06-03T08:22:21.285Z,6.90
2017-06-03T08:24:48.075Z,6.30
2017-06-03T08:27:14.899Z,4.93
2017-06-03T08:29:41.665Z,8.13
2017-06-03T08:32:08.443Z,11.70
2017-06-03T08:34:35.262Z,5.53
2017-06-03T08:37:02.048Z,7.47
2017-06-03T08:39:28.824Z,7.60
2017-06-03T08:41:55.630Z,5.60
2017-06-03T08:44:22.421Z,4.77
2017-06-03T08:46:49.194Z,7.40
2017-06-03T08:49:15.992Z,3.53
2017-06-03T08:51:42.738Z,4.50
2017-06-03T08:54:09.506Z,2.77
2017-06-03T08:56:36.319Z,5.80
2017-06-03T08:59:03.070Z,5.73
2017-06-03T09:01:29.873Z,7.40
2017-06-03T09:03:56.687Z,4.40
2017-06-03T09:06:23.503Z,4.97
2017-06-03T09:08:50.270Z,5.30
2017-06-03T09:11:17.070Z,5.20
2017-06-03T09:13:43.818Z,4.67
2017-06-03T09:16:10.559Z,3.90
2017-06-03T09:18:37.351Z,7.80
2017-06-03T09:21:04.118Z,3.97
2017-06-03T09:23:30.909Z,4.60
2017-06-03T09:25:57.707Z,11.57
2017-06-03T09:28:24.566Z,4.73
2017-06-03T09:30:51.349Z,3.80
2017-06-03T09:33:18.155Z,5.17
2017-06-03T09:35:44.931Z,5.90
2017-06-03T09:38:11.724Z,6.17
2017-06-03T09:40:38.625Z,4.97
2017-06-03T09:43:05.396Z,5.67
2017-06-03T09:45:32.147Z,5.43
2017-06-03T09:47:58.946Z,4.70
2017-06-03T09:50:25.791Z,8.13
2017-06-03T09:52:52.623Z,5.77
2017-06-03T09:55:19.447Z,6.63
2017-06-03T09:57:46.204Z,3.87
2017-06-03T10:00:13.180Z,9.37
2017-06-03T10:02:40.030Z,6.43
2017-06-03T10:05:06.788Z,7.77
2017-06-03T10:07:33.558Z,5.20
2017-06-03T10:10:00.359Z,4.40
2017-06-03T10:12:27.836Z,4.53
2017-06-03T10:14:54.599Z,5.17
2017-06-03T10:17:21.426Z,6.23
2017-06-03T10:19:48.197Z,6.90
2017-06-03T10:22:14.977Z,9.23
2017-06-03T10:24:41.791Z,5.90
2017-06-03T10:27:08.551Z,7.07
2017-06-03T10:29:35.365Z,11.90
2017-06-03T10:32:02.161Z,8.20
2017-06-03T10:34:28.937Z,7.87
2017-06-03T10:36:55.755Z,4.40
2017-06-03T10:39:22.562Z,10.17
2017-06-03T10:41:49.346Z,7.40
2017-06-03T10:44:16.113Z,5.10
2017-06-03T10:46:42.932Z,4.27
2017-06-03T10:49:09.711Z,8.33
2017-06-03T10:51:36.483Z,6.63
2017-06-03T10:54:03.302Z,6.47
2017-06-03T10:56:30.078Z,7.53
2017-06-03T10:58:56.852Z,8.80
2017-06-03T11:01:23.671Z,7.93
2017-06-03T11:03:50.441Z,5.93
2017-06-03T11:06:17.195Z,13.70
2017-06-03T11:08:43.987Z,6.40
2017-06-03T11:11:12.246Z,4.80
2017-06-03T11:13:39.589Z,5.37
2017-06-03T11:16:06.422Z,8.13
2017-06-03T11:18:33.161Z,6.63
2017-06-03T11:21:00.120Z,4.80
2017-06-03T11:23:26.950Z,4.93
2017-06-03T11:25:53.733Z,6.57
2017-06-03T11:28:20.514Z,6.33
2017-06-03T11:30:47.381Z,6.90
2017-06-03T11:33:14.143Z,7.03
2017-06-03T11:35:40.965Z,8.43
2017-06-03T11:38:07.773Z,6.37
2017-06-03T11:40:34.531Z,6.10
2017-06-03T11:43:01.303Z,7.17
2017-06-03T11:45:28.129Z,11.37
2017-06-03T11:47:54.875Z,6.30
2017-06-03T11:50:21.674Z,7.70
2017-06-03T11:52:48.471Z,9.47
2017-06-03T11:55:15.237Z,11.10
2017-06-03T11:57:42.002Z,6.30
2017-06-03T12:00:08.817Z,8.67
2017-06-03T12:02:35.610Z,9.83
2017-06-03T12:05:02.375Z,7.70
2017-06-03T12:07:29.211Z,12.10
2017-06-03T12:09:55.998Z,9.00
2017-06-03T12:12:22.744Z,9.80
2017-06-03T12:14:49.531Z,6.50
2017-06-03T12:17:16.297Z,12.13
2017-06-03T12:19:43.035Z,6.03
2017-06-03T12:22:09.846Z,7.93
2017-06-03T12:24:36.634Z,10.67
2017-06-03T12:27:03.395Z,7.83
2017-06-03T12:29:30.210Z,8.97
2017-06-03T12:31:56.979Z,6.70
2017-06-03T12:34:23.725Z,8.73
2017-06-03T12:36:50.538Z,8.00
2017-06-03T12:39:17.303Z,10.90
2017-06-03T12:41:44.083Z,7.87
2017-06-03T12:44:10.907Z,9.73
2017-06-03T12:46:37.670Z,5.20
2017-06-03T12:49:04.471Z,6.50
2017-06-03T12:51:31.259Z,8.90
2017-06-03T12:53:58.038Z,8.20
2017-06-03T12:56:24.785Z,6.93
2017-06-03T12:58:51.565Z,6.87
2017-06-03T13:01:18.355Z,8.03
2017-06-03T13:03:45.116Z,8.97
2017-06-03T13:06:11.911Z,8.40
2017-06-03T13:08:38.665Z,7.97
2017-06-03T13:11:05.420Z,8.17
2017-06-03T13:13:32.203Z,8.23
2017-06-03T13:15:58.947Z,9.70
2017-06-03T13:18:25.726Z,7.00
2017-06-03T13:20:52.516Z,9.03
2017-06-03T13:23:19.303Z,10.33
2017-06-03T13:25:46.060Z,10.97
2017-06-03T13:28:12.900Z,7.57
2017-06-03T13:30:39.669Z,7.77
2017-06-03T13:33:06.424Z,7.40
2017-06-03T13:35:33.315Z,8.93
2017-06-03T13:38:00.091Z,10.00
2017-06-03T13:40:26.884Z,16.43
2017-06-03T13:42:53.679Z,7.10
2017-06-03T13:45:20.450Z,7.87
2017-06-03T13:50:21.407Z,6.63
2017-06-03T13:52:48.224Z,8.43
2017-06-03T13:55:15.088Z,8.50
2017-06-03T13:57:41.897Z,6.90
2017-06-03T14:00:08.691Z,6.90
2017-06-03T14:02:35.478Z,7.47
2017-06-03T14:05:02.285Z,7.50
2017-06-03T14:07:29.040Z,8.30
2017-06-03T14:09:55.788Z,15.47
2017-06-03T14:12:22.619Z,11.27
2017-06-03T14:14:49.452Z,11.20
2017-06-03T14:17:16.242Z,8.90
2017-06-03T14:19:43.135Z,7.00
2017-06-03T14:22:09.907Z,6.63
2017-06-03T14:24:36.805Z,11.27
2017-06-03T14:27:03.598Z,10.17
2017-06-03T14:29:30.363Z,8.93
2017-06-03T14:31:57.154Z,10.03
2017-06-03T14:34:23.939Z,10.40
2017-06-03T14:36:50.703Z,8.33
2017-06-03T14:39:17.499Z,10.97
2017-06-03T14:41:44.321Z,10.57
2017-06-03T14:44:11.079Z,8.80
2017-06-03T14:46:37.870Z,9.83
2017-06-03T14:49:04.694Z,10.00
2017-06-03T14:51:31.462Z,7.50
2017-06-03T14:53:58.318Z,7.13
2017-06-03T14:56:25.126Z,11.30
2017-06-03T14:58:51.934Z,10.90
2017-06-03T15:01:18.719Z,9.97
2017-06-03T15:03:45.642Z,8.33
2017-06-03T15:06:12.414Z,11.00
2017-06-03T15:08:39.310Z,13.60
2017-06-03T15:11:06.095Z,14.43
2017-06-03T15:13:32.843Z,9.83
2017-06-03T15:15:59.652Z,11.70
2017-06-03T15:18:26.453Z,9.17
2017-06-03T15:20:53.258Z,11.17
2017-06-03T15:23:20.050Z,10.27
2017-06-03T15:25:46.850Z,9.90
2017-06-03T15:28:13.652Z,8.23
2017-06-03T15:30:40.537Z,9.27
2017-06-03T15:33:07.324Z,9.33
2017-06-03T15:35:34.130Z,9.70
2017-06-03T15:38:00.907Z,11.77
2017-06-03T15:40:27.710Z,8.50
2017-06-03T15:42:54.498Z,12.17
2017-06-03T15:45:21.269Z,8.53
2017-06-03T15:47:48.075Z,9.60
2017-06-03T15:50:14.852Z,9.23
2017-06-03T15:52:41.626Z,9.67
2017-06-03T15:55:08.428Z,7.60
2017-06-03T15:57:35.207Z,8.60
2017-06-03T16:00:02.000Z,8.83
2017-06-03T16:02:29.136Z,9.87
2017-06-03T16:04:55.901Z,9.90
2017-06-03T16:07:22.668Z,8.37
2017-06-03T16:09:49.645Z,8.33
2017-06-03T16:12:16.399Z,10.80
2017-06-03T16:14:44.986Z,13.03
2017-06-03T16:17:11.780Z,8.70
2017-06-03T16:19:38.538Z,8.07
2017-06-03T16:22:05.306Z,11.90
2017-06-03T16:24:32.100Z,11.10
2017-06-03T16:26:58.864Z,9.73
2017-06-03T16:29:25.610Z,8.43
2017-06-03T16:31:52.392Z,13.30
2017-06-03T16:34:19.220Z,8.33
2017-06-03T16:36:45.959Z,10.60
2017-06-03T16:39:12.760Z,8.57
2017-06-03T16:41:39.511Z,12.20
2017-06-03T16:44:06.279Z,8.67
2017-06-03T16:46:33.098Z,12.70
2017-06-03T16:48:59.844Z,8.53
2017-06-03T16:51:26.611Z,11.10
2017-06-03T16:53:53.411Z,9.70
2017-06-03T16:56:20.163Z,12.93
2017-06-03T16:58:46.923Z,10.43
2017-06-03T17:01:13.737Z,8.27
2017-06-03T17:03:40.510Z,8.40
2017-06-03T17:06:07.290Z,11.40
2017-06-03T17:08:34.122Z,12.57
2017-06-03T17:11:00.879Z,11.10
2017-06-03T17:13:27.650Z,12.17
2017-06-03T17:15:54.436Z,9.90
2017-06-03T17:18:21.192Z,11.27
2017-06-03T17:20:47.966Z,10.40
2017-06-03T17:23:14.743Z,9.33
2017-06-03T17:25:41.591Z,7.57
2017-06-03T17:28:08.361Z,12.00
2017-06-03T17:30:35.151Z,9.13
2017-06-03T17:33:01.921Z,9.60
2017-06-03T17:35:28.709Z,10.27
2017-06-03T17:37:55.505Z,12.23
2017-06-03T17:40:22.298Z,10.40
2017-06-03T17:42:49.082Z,10.40
2017-06-03T17:45:15.903Z,9.60
2017-06-03T17:47:42.677Z,10.80
2017-06-03T17:50:09.434Z,11.60
2017-06-03T17:52:36.256Z,17.77
2017-06-03T17:55:03.050Z,9.70
2017-06-03T17:57:29.798Z,9.93
2017-06-03T17:59:56.590Z,10.27
2017-06-03T18:02:23.366Z,11.87
2017-06-03T18:04:50.127Z,9.93
2017-06-03T18:07:16.933Z,10.63
2017-06-03T18:09:43.702Z,13.77
2017-06-03T18:12:10.510Z,10.63
2017-06-03T18:14:37.328Z,10.57
2017-06-03T18:17:04.113Z,17.33
2017-06-03T18:19:30.880Z,10.90
2017-06-03T18:21:57.734Z,12.07
2017-06-03T18:24:30.317Z,13.87
2017-06-03T18:26:57.193Z,9.27
2017-06-03T18:29:23.965Z,10.67
2017-06-03T18:31:50.773Z,12.67
2017-06-03T18:34:17.639Z,11.47
2017-06-03T18:36:44.414Z,12.00
2017-06-03T18:39:11.194Z,12.70
2017-06-03T18:41:37.979Z,12.27
2017-06-03T18:44:04.750Z,11.23
2017-06-03T18:46:31.569Z,13.43
2017-06-03T18:48:58.356Z,11.00
2017-06-03T18:51:25.114Z,11.13
2017-06-03T18:53:51.876Z,10.10
2017-06-03T18:56:18.680Z,10.20
2017-06-03T18:58:45.439Z,15.50
2017-06-03T19:01:12.265Z,11.37
2017-06-03T19:03:39.849Z,13.73
2017-06-03T19:06:06.590Z,11.83
2017-06-03T19:08:33.394Z,11.23
2017-06-03T19:11:00.204Z,10.80
2017-06-03T19:13:26.969Z,12.33
2017-06-03T19:15:53.717Z,11.53
2017-06-03T19:18:20.523Z,10.13
2017-06-03T19:20:47.276Z,11.97
2017-06-03T19:23:14.029Z,11.83
2017-06-03T19:25:40.823Z,12.43
2017-06-03T19:28:07.596Z,14.30
2017-06-03T19:30:34.395Z,14.10
2017-06-03T19:33:01.212Z,14.17
2017-06-03T19:35:27.988Z,12.27
2017-06-03T19:37:54.790Z,12.20
2017-06-03T19:40:21.602Z,17.30
2017-06-03T19:42:48.379Z,13.60
2017-06-03T19:45:15.136Z,16.03
2017-06-03T19:47:41.959Z,14.60
2017-06-03T19:50:08.748Z,18.60
2017-06-03T19:52:35.522Z,17.47
2017-06-03T19:55:02.326Z,17.80
2017-06-03T19:57:29.118Z,14.03
2017-06-03T19:59:55.922Z,15.50
2017-06-03T20:02:32.775Z,17.33
2017-06-03T20:04:59.647Z,17.90
2017-06-03T20:07:26.430Z,17.30
2017-06-03T20:09:53.278Z,19.10
2017-06-03T20:12:20.054Z,18.33
2017-06-03T20:14:46.822Z,15.57
2017-06-03T20:17:13.705Z,19.43
2017-06-03T20:19:40.475Z,19.63
2017-06-03T20:22:07.256Z,18.57
2017-06-03T20:24:34.070Z,18.40
2017-06-03T20:27:00.830Z,17.80
2017-06-03T20:29:27.635Z,19.30
2017-06-03T20:31:54.423Z,21.53
2017-06-03T20:34:21.188Z,18.43
2017-06-03T20:36:47.954Z,20.60
2017-06-03T20:39:15.208Z,20.17
2017-06-03T20:41:41.971Z,20.70
2017-06-03T20:44:08.732Z,23.20
2017-06-03T20:46:35.559Z,18.80
2017-06-03T20:49:02.374Z,19.80
2017-06-03T20:51:29.162Z,18.10
2017-06-03T20:53:55.950Z,20.47
2017-06-03T20:56:22.762Z,18.60
2017-06-03T20:58:49.548Z,23.63
2017-06-03T21:01:16.390Z,19.10
2017-06-03T21:03:43.153Z,23.60
2017-06-03T21:06:09.923Z,19.73
2017-06-03T21:08:36.727Z,19.80
2017-06-03T21:11:03.504Z,19.77
2017-06-03T21:13:30.284Z,17.20
2017-06-03T21:15:57.094Z,20.30
2017-06-03T21:18:23.889Z,20.80
2017-06-03T21:20:50.658Z,20.83
2017-06-03T21:23:17.448Z,19.23
2017-06-03T21:25:44.246Z,21.30
2017-06-03T21:28:11.011Z,19.63
2017-06-03T21:30:37.804Z,18.63
2017-06-03T21:33:04.578Z,21.17
2017-06-03T21:35:31.335Z,20.03
2017-06-03T21:37:58.155Z,22.80
2017-06-03T21:40:24.899Z,21.20
2017-06-03T21:42:51.655Z,19.03
2017-06-03T21:45:18.467Z,20.53
2017-06-03T21:47:45.238Z,23.17
2017-06-03T21:50:12.015Z,28.60
2017-06-03T21:52:38.827Z,18.47
2017-06-03T21:55:05.628Z,16.37
2017-06-03T21:57:32.402Z,24.30
2017-06-03T21:59:59.191Z,20.47
2017-06-03T22:02:25.935Z,17.67
2017-06-03T22:04:52.701Z,16.03
2017-06-03T22:07:19.514Z,20.13
2017-06-03T22:09:46.255Z,20.10
2017-06-03T22:12:13.057Z,21.00
2017-06-03T22:14:39.847Z,20.17
2017-06-03T22:17:06.618Z,19.83
2017-06-03T22:19:33.475Z,22.37
2017-06-03T22:22:00.271Z,20.33
